Time;durP1;ratioP1;P1;durP2;ratioP2;P2;SDS_P1;SDS_P2;PMS_P1;PMS_P2;Temp;Humidity;BMP_temperature;BMP_pressure;BME280_temperature;BME280_humidity;BME280_pressure;Samples;Min_cycle;Max_cycle;Signal;HPM_P1;HPM_P2
2023/09/17 00:00:36;;;;;;;8.63;6.30;;;21.60;99.90;;;;;;5087522;28;20429;-82
2023/09/17 00:03:03;;;;;;;7.27;5.43;;;21.60;99.90;;;;;;5087665;28;20806;-82
2023/09/17 00:05:29;;;;;;;7.63;6.47;;;21.60;99.90;;;;;;5089028;28;21095;-81
2023/09/17 00:07:54;;;;;;;7.17;5.50;;;21.60;99.90;;;;;;5088980;28;20478;-82
2023/09/17 00:10:22;;;;;;;6.03;5.43;;;21.50;99.90;;;;;;5088319;28;20483;-81
2023/09/17 00:12:48;;;;;;;6.20;5.33;;;21.50;99.90;;;;;;5088992;28;20161;-81
2023/09/17 00:15:14;;;;;;;7.60;5.27;;;21.50;99.90;;;;;;5088290;28;20444;-81
2023/09/17 00:17:39;;;;;;;5.93;5.30;;;21.50;99.90;;;;;;5088878;28;20917;-81
2023/09/17 00:20:10;;;;;;;6.37;5.63;;;21.50;99.90;;;;;;5087140;28;20287;-81
2023/09/17 00:22:37;;;;;;;7.20;5.70;;;21.50;99.90;;;;;;5087522;28;20220;-81
2023/09/17 00:25:04;;;;;;;7.57;5.67;;;21.50;99.90;;;;;;5087282;28;20453;-82
2023/09/17 00:27:30;;;;;;;7.93;6.33;;;21.50;99.90;;;;;;5087170;28;20677;-82
2023/09/17 00:29:56;;;;;;;9.40;6.20;;;21.50;99.90;;;;;;5087007;28;20454;-81
2023/09/17 00:32:21;;;;;;;7.70;6.63;;;21.40;99.90;;;;;;5088420;28;20624;-83
2023/09/17 00:34:47;;;;;;;8.80;5.40;;;21.40;99.90;;;;;;5087317;28;20205;-81
2023/09/17 00:37:13;;;;;;;7.53;5.57;;;21.40;99.90;;;;;;5087436;28;20321;-82
2023/09/17 00:39:39;;;;;;;7.90;6.37;;;21.30;99.90;;;;;;5088731;28;21146;-83
2023/09/17 00:42:06;;;;;;;8.00;6.37;;;21.30;99.90;;;;;;5088166;28;20296;-81
2023/09/17 00:44:32;;;;;;;7.63;5.63;;;21.30;99.90;;;;;;5088015;28;20448;-81
2023/09/17 00:47:00;;;;;;;7.00;5.70;;;21.30;99.90;;;;;;5088069;28;20462;-81
2023/09/17 00:49:26;;;;;;;7.73;6.90;;;21.30;99.90;;;;;;5086302;28;20211;-82
2023/09/17 00:51:52;;;;;;;8.20;6.43;;;21.30;99.90;;;;;;5086635;28;20409;-81
2023/09/17 00:54:17;;;;;;;8.60;6.40;;;21.30;99.90;;;;;;5088131;28;20188;-81
2023/09/17 00:56:43;;;;;;;7.53;6.20;;;21.20;99.90;;;;;;5088317;28;20214;-82
2023/09/17 00:59:10;;;;;;;9.60;6.73;;;21.20;99.90;;;;;;5088059;28;20176;-82
2023/09/17 01:01:36;;;;;;;7.40;5.97;;;21.20;99.90;;;;;;5086757;28;20516;-82
2023/09/17 01:04:03;;;;;;;9.20;6.47;;;21.20;99.90;;;;;;5086596;28;20475;-82
2023/09/17 01:06:29;;;;;;;7.77;6.37;;;21.10;99.90;;;;;;5086358;28;20203;-81
2023/09/17 01:08:55;;;;;;;7.73;6.13;;;21.10;99.90;;;;;;5086373;28;20749;-83
2023/09/17 01:11:21;;;;;;;8.03;6.60;;;21.10;99.90;;;;;;5086405;28;20437;-82
2023/09/17 01:14:07;;;;;;;8.53;6.37;;;21.00;99.90;;;;;;5086282;28;20843;-83
2023/09/17 01:16:33;;;;;;;9.00;7.00;;;21.00;99.90;;;;;;5086046;28;20210;-81
2023/09/17 01:19:00;;;;;;;10.40;7.70;;;21.00;99.90;;;;;;5087758;28;20419;-82
2023/09/17 01:21:36;;;;;;;8.10;6.80;;;20.90;99.90;;;;;;5087368;28;20468;-83
2023/09/17 01:24:13;;;;;;;7.93;5.43;;;20.90;99.90;;;;;;5087598;28;20417;-83
2023/09/17 01:26:40;;;;;;;8.33;6.80;;;20.90;99.90;;;;;;5086755;28;20645;-82
2023/09/17 01:29:06;;;;;;;9.40;6.90;;;20.90;99.90;;;;;;5086015;28;20435;-82
2023/09/17 01:31:34;;;;;;;9.40;7.50;;;20.90;99.90;;;;;;5086019;28;20433;-81
2023/09/17 01:34:00;;;;;;;10.10;8.00;;;20.90;99.90;;;;;;5087385;28;20427;-82
2023/09/17 01:36:36;;;;;;;13.43;7.73;;;20.90;99.90;;;;;;5085883;28;20437;-80
2023/09/17 01:39:12;;;;;;;14.63;8.67;;;20.90;99.90;;;;;;5087413;28;20984;-81
2023/09/17 01:41:41;;;;;;;13.00;10.90;;;20.80;99.90;;;;;;5087108;28;20533;-80
2023/09/17 01:44:08;;;;;;;10.90;9.23;;;20.90;99.90;;;;;;5085768;28;20949;-80
2023/09/17 01:46:35;;;;;;;14.27;9.70;;;20.90;99.90;;;;;;5087302;28;20952;-80
2023/09/17 01:49:02;;;;;;;12.73;9.50;;;20.90;99.90;;;;;;5086904;28;20486;-80
2023/09/17 01:51:31;;;;;;;15.57;10.50;;;20.80;99.90;;;;;;5086602;28;20484;-81
2023/09/17 01:53:57;;;;;;;14.53;11.20;;;20.80;99.90;;;;;;5085434;28;20582;-80
2023/09/17 01:56:23;;;;;;;16.23;11.67;;;20.80;99.90;;;;;;5086466;28;20429;-80
2023/09/17 01:58:49;;;;;;;13.90;10.53;;;20.80;99.90;;;;;;5086968;28;20516;-82
2023/09/17 02:01:15;;;;;;;16.83;11.40;;;20.80;99.90;;;;;;5086516;28;20680;-80
2023/09/17 02:03:41;;;;;;;17.37;11.73;;;20.80;99.90;;;;;;5085351;28;20450;-82
2023/09/17 02:06:06;;;;;;;15.43;11.50;;;20.80;99.90;;;;;;5084991;28;20243;-82
2023/09/17 02:08:32;;;;;;;16.67;13.20;;;20.80;99.90;;;;;;5085060;28;20181;-80
2023/09/17 02:10:58;;;;;;;17.33;12.50;;;20.80;99.90;;;;;;5085094;28;20664;-80
2023/09/17 02:13:24;;;;;;;15.80;12.00;;;20.90;99.90;;;;;;5083961;28;20176;-80
2023/09/17 02:15:50;;;;;;;17.57;11.30;;;20.90;99.90;;;;;;5085862;28;20604;-80
2023/09/17 02:18:15;;;;;;;17.10;11.67;;;20.90;99.90;;;;;;5086237;28;20709;-80
2023/09/17 02:20:42;;;;;;;17.43;12.43;;;20.90;99.90;;;;;;5085078;28;20207;-82
2023/09/17 02:23:10;;;;;;;16.83;12.20;;;20.90;99.90;;;;;;5086337;28;20543;-80
2023/09/17 02:25:36;;;;;;;16.10;13.23;;;20.90;99.90;;;;;;5086407;28;20425;-81
2023/09/17 02:28:02;;;;;;;16.40;11.93;;;20.80;99.90;;;;;;5086205;28;20462;-80
2023/09/17 02:30:28;;;;;;;16.77;12.27;;;20.90;99.90;;;;;;5086316;28;20188;-81
2023/09/17 02:32:54;;;;;;;16.80;11.27;;;20.90;99.90;;;;;;5086165;28;20397;-80
2023/09/17 02:35:19;;;;;;;19.77;12.43;;;20.90;99.90;;;;;;5086139;28;20597;-83
2023/09/17 02:37:45;;;;;;;21.00;13.60;;;20.90;99.90;;;;;;5086681;28;20180;-82
2023/09/17 02:40:11;;;;;;;18.27;13.17;;;20.90;99.90;;;;;;5084688;28;20291;-81
2023/09/17 02:42:37;;;;;;;16.30;12.30;;;20.90;99.90;;;;;;5085966;28;20303;-81
2023/09/17 02:45:04;;;;;;;16.67;12.60;;;20.90;99.90;;;;;;5084589;28;20204;-82
2023/09/17 02:47:32;;;;;;;17.77;12.80;;;20.90;99.90;;;;;;5084568;28;20413;-82
2023/09/17 02:49:57;;;;;;;22.30;13.03;;;20.90;99.90;;;;;;5084497;28;20489;-80
2023/09/17 02:52:23;;;;;;;14.53;11.60;;;20.90;99.90;;;;;;5084671;28;20409;-81
2023/09/17 02:54:48;;;;;;;17.77;11.57;;;21.00;99.90;;;;;;5086133;28;20227;-82
2023/09/17 02:57:14;;;;;;;18.70;12.30;;;21.00;99.90;;;;;;5086083;28;20180;-82
2023/09/17 02:59:40;;;;;;;20.03;14.40;;;21.00;99.90;;;;;;5084328;28;20639;-80
2023/09/17 03:02:06;;;;;;;17.73;11.73;;;21.00;99.90;;;;;;5084146;28;20598;-80
2023/09/17 03:04:33;;;;;;;18.47;13.00;;;21.00;99.90;;;;;;5084320;28;20528;-81
2023/09/17 03:06:58;;;;;;;19.40;11.97;;;21.00;99.90;;;;;;5084609;28;20709;-82
2023/09/17 03:09:25;;;;;;;17.37;12.20;;;21.00;99.90;;;;;;5085957;28;20432;-80
2023/09/17 03:11:50;;;;;;;17.33;12.47;;;21.00;99.90;;;;;;5084253;28;20187;-81
2023/09/17 03:14:16;;;;;;;18.70;13.43;;;20.90;99.90;;;;;;5084665;28;20818;-80
2023/09/17 03:16:42;;;;;;;18.03;12.10;;;20.90;99.90;;;;;;5084220;28;20177;-80
2023/09/17 03:19:07;;;;;;;18.33;13.47;;;20.90;99.90;;;;;;5084139;28;20231;-81
2023/09/17 03:21:40;;;;;;;17.10;12.47;;;20.90;99.90;;;;;;5085505;28;20204;-81
2023/09/17 03:24:06;;;;;;;18.93;12.73;;;20.90;99.90;;;;;;5085801;28;20188;-80
2023/09/17 03:26:32;;;;;;;20.60;13.03;;;20.90;99.90;;;;;;5083945;28;20902;-81
2023/09/17 03:28:58;;;;;;;18.23;12.70;;;20.90;99.90;;;;;;5085674;28;20448;-82
2023/09/17 03:31:24;;;;;;;20.93;12.90;;;20.90;99.90;;;;;;5086000;28;20196;-82
2023/09/17 03:33:49;;;;;;;19.47;13.37;;;21.00;99.90;;;;;;5085163;28;20181;-82
2023/09/17 03:36:15;;;;;;;19.40;13.33;;;20.90;99.90;;;;;;5084093;28;20200;-81
2023/09/17 03:38:41;;;;;;;18.63;12.43;;;20.90;99.90;;;;;;5085409;28;20428;-82
2023/09/17 03:41:07;;;;;;;18.87;12.20;;;20.90;99.90;;;;;;5083703;28;20579;-80
2023/09/17 03:43:34;;;;;;;17.63;12.90;;;20.90;99.90;;;;;;5085455;28;20181;-81
2023/09/17 03:46:03;;;;;;;20.33;13.40;;;20.90;99.90;;;;;;5083991;28;20789;-82
2023/09/17 03:48:29;;;;;;;20.00;13.03;;;20.90;99.90;;;;;;5083841;28;20433;-80
2023/09/17 03:50:55;;;;;;;19.13;14.40;;;21.00;99.90;;;;;;5083890;28;21000;-81
2023/09/17 03:53:21;;;;;;;21.67;13.00;;;20.90;99.90;;;;;;5085700;28;20424;-82
2023/09/17 03:55:48;;;;;;;17.67;12.87;;;20.90;99.90;;;;;;5083736;28;20193;-80
2023/09/17 03:58:14;;;;;;;19.53;12.93;;;21.00;99.90;;;;;;5083912;28;20922;-80
2023/09/17 04:00:44;;;;;;;25.13;14.10;;;21.00;99.90;;;;;;5085123;28;20413;-82
2023/09/17 04:03:09;;;;;;;20.07;14.00;;;21.00;99.90;;;;;;5085356;28;20405;-82
2023/09/17 04:05:36;;;;;;;18.77;13.50;;;21.00;99.90;;;;;;5085071;28;20885;-81
2023/09/17 04:08:03;;;;;;;20.17;14.77;;;21.00;99.90;;;;;;5083851;28;20537;-80
2023/09/17 04:10:28;;;;;;;16.67;12.23;;;21.00;99.90;;;;;;5085114;28;20421;-80
2023/09/17 04:12:54;;;;;;;21.97;15.10;;;21.00;99.90;;;;;;5086722;28;20914;-81
2023/09/17 04:15:20;;;;;;;18.80;12.97;;;21.00;99.90;;;;;;5086224;28;20236;-82
2023/09/17 04:17:53;;;;;;;21.40;13.47;;;21.00;99.90;;;;;;5088257;28;20173;-80
2023/09/17 04:20:19;;;;;;;19.93;14.80;;;21.00;99.90;;;;;;5087210;28;20688;-81
2023/09/17 04:22:49;;;;;;;19.53;12.67;;;21.00;99.90;;;;;;5087364;28;20987;-81
2023/09/17 04:25:17;;;;;;;18.07;13.20;;;21.10;99.90;;;;;;5086938;28;20460;-81
2023/09/17 04:27:44;;;;;;;18.80;12.77;;;21.10;99.90;;;;;;5087124;28;20505;-81
2023/09/17 04:30:10;;;;;;;20.30;13.90;;;21.10;99.90;;;;;;5087206;28;20498;-81
2023/09/17 04:32:37;;;;;;;20.00;13.90;;;21.10;99.90;;;;;;5088417;28;20496;-82
2023/09/17 04:35:08;;;;;;;18.20;12.73;;;21.10;99.90;;;;;;5088242;28;20444;-80
2023/09/17 04:37:34;;;;;;;19.97;13.57;;;21.10;99.90;;;;;;5088307;28;20490;-81
2023/09/17 04:40:00;;;;;;;20.80;14.50;;;21.10;99.90;;;;;;5088492;28;20495;-82
2023/09/17 04:42:27;;;;;;;18.83;13.27;;;21.10;99.90;;;;;;5088541;28;20469;-80
2023/09/17 04:44:52;;;;;;;19.07;13.40;;;21.10;99.90;;;;;;5088237;28;20494;-82
2023/09/17 04:47:18;;;;;;;18.63;13.00;;;21.10;99.90;;;;;;5088223;28;20447;-80
2023/09/17 04:49:43;;;;;;;19.67;13.60;;;21.10;99.90;;;;;;5088105;28;20220;-80
2023/09/17 04:52:09;;;;;;;17.50;12.93;;;21.10;99.90;;;;;;5086695;28;20232;-81
2023/09/17 04:54:38;;;;;;;18.07;13.20;;;21.10;99.90;;;;;;5086518;28;20200;-82
2023/09/17 04:57:04;;;;;;;22.07;14.10;;;21.10;99.90;;;;;;5088232;28;20684;-80
2023/09/17 04:59:30;;;;;;;15.40;11.40;;;21.10;99.90;;;;;;5088085;28;20543;-82
2023/09/17 05:01:55;;;;;;;19.63;14.37;;;21.10;99.90;;;;;;5087899;28;21052;-81
2023/09/17 05:04:24;;;;;;;17.80;13.03;;;21.10;99.90;;;;;;5088310;28;20188;-82
2023/09/17 05:06:49;;;;;;;21.00;14.67;;;21.10;99.90;;;;;;5088000;28;20363;-80
2023/09/17 05:09:15;;;;;;;18.73;13.50;;;21.20;99.90;;;;;;5086556;28;20509;-81
2023/09/17 05:11:41;;;;;;;18.70;14.30;;;21.10;99.90;;;;;;5088114;28;20764;-81
2023/09/17 05:14:06;;;;;;;16.73;12.43;;;21.20;99.90;;;;;;5086384;28;20271;-80
2023/09/17 05:16:32;;;;;;;19.30;13.40;;;21.20;99.90;;;;;;5086855;28;20184;-82
2023/09/17 05:18:58;;;;;;;18.00;11.53;;;21.20;99.90;;;;;;5085647;28;20567;-80
2023/09/17 05:21:24;;;;;;;17.00;12.50;;;21.20;99.90;;;;;;5086079;28;20460;-80
2023/09/17 05:23:49;;;;;;;18.43;13.13;;;21.30;99.90;;;;;;5085444;28;20717;-81
2023/09/17 05:26:15;;;;;;;19.93;13.73;;;21.30;99.90;;;;;;5085914;28;20211;-83
2023/09/17 05:28:41;;;;;;;19.70;13.50;;;21.30;99.90;;;;;;5086067;28;20181;-80
2023/09/17 05:31:07;;;;;;;18.20;13.33;;;21.30;99.90;;;;;;5087157;28;20426;-82
2023/09/17 05:33:32;;;;;;;16.13;12.00;;;21.40;99.90;;;;;;5086133;28;20180;-82
2023/09/17 05:35:58;;;;;;;21.07;12.63;;;21.40;99.90;;;;;;5087001;28;20681;-82
2023/09/17 05:38:25;;;;;;;20.17;13.93;;;21.40;99.90;;;;;;5084730;28;20719;-82
2023/09/17 05:40:51;;;;;;;17.80;12.70;;;21.40;99.90;;;;;;5085461;28;20250;-81
2023/09/17 05:43:16;;;;;;;17.93;13.23;;;21.30;99.90;;;;;;5087005;28;20829;-82
2023/09/17 05:45:42;;;;;;;16.73;12.80;;;21.30;99.90;;;;;;5085669;28;20223;-82
2023/09/17 05:48:08;;;;;;;15.93;12.20;;;21.30;99.90;;;;;;5085668;28;20195;-81
2023/09/17 05:50:33;;;;;;;19.40;12.60;;;21.30;99.90;;;;;;5085691;28;20693;-82
2023/09/17 05:52:59;;;;;;;17.70;12.57;;;21.30;99.90;;;;;;5087365;28;20488;-81
2023/09/17 05:55:24;;;;;;;18.87;14.40;;;21.30;99.90;;;;;;5085487;28;20199;-81
2023/09/17 05:57:50;;;;;;;19.27;13.83;;;21.30;99.90;;;;;;5085579;28;20834;-80
2023/09/17 06:00:17;;;;;;;17.30;12.07;;;21.30;99.90;;;;;;5086404;28;20689;-82
2023/09/17 06:02:43;;;;;;;20.90;14.37;;;21.30;99.90;;;;;;5086868;28;20250;-81
2023/09/17 06:05:09;;;;;;;19.80;13.80;;;21.30;99.90;;;;;;5085084;28;21095;-81
2023/09/17 06:07:35;;;;;;;19.50;14.10;;;21.40;99.90;;;;;;5085183;28;20448;-82
2023/09/17 06:10:01;;;;;;;20.33;14.20;;;21.40;99.90;;;;;;5086145;28;20522;-82
2023/09/17 06:12:26;;;;;;;17.73;13.33;;;21.40;99.90;;;;;;5086991;28;20164;-81
2023/09/17 06:14:52;;;;;;;19.77;13.93;;;21.50;99.90;;;;;;5084765;28;20705;-81
2023/09/17 06:17:18;;;;;;;18.60;13.10;;;21.50;99.90;;;;;;5085101;28;20391;-80
2023/09/17 06:19:43;;;;;;;21.33;13.90;;;21.50;99.90;;;;;;5085652;28;20696;-81
2023/09/17 06:22:11;;;;;;;15.67;11.67;;;21.50;99.90;;;;;;5084732;28;20207;-82
2023/09/17 06:24:36;;;;;;;18.20;13.90;;;21.50;99.90;;;;;;5086704;28;20196;-82
2023/09/17 06:27:03;;;;;;;16.37;12.80;;;21.50;99.90;;;;;;5086158;28;20773;-81
2023/09/17 06:29:29;;;;;;;16.90;13.07;;;21.60;99.90;;;;;;5085025;28;20385;-81
2023/09/17 06:31:55;;;;;;;18.53;12.27;;;21.60;99.90;;;;;;5086009;28;20424;-80
2023/09/17 06:34:21;;;;;;;20.70;13.70;;;21.70;99.90;;;;;;5084650;28;20559;-82
2023/09/17 06:36:47;;;;;;;17.63;13.10;;;21.70;99.90;;;;;;5085756;28;20743;-81
2023/09/17 06:39:13;;;;;;;17.37;13.00;;;21.70;99.90;;;;;;5084464;28;20184;-82
2023/09/17 06:41:39;;;;;;;18.00;13.23;;;21.80;99.90;;;;;;5086548;28;20560;-82
2023/09/17 06:44:05;;;;;;;16.47;13.13;;;21.80;99.90;;;;;;5084651;28;20176;-82
2023/09/17 06:46:31;;;;;;;16.93;12.87;;;21.80;99.90;;;;;;5084550;28;20535;-80
2023/09/17 06:48:57;;;;;;;20.57;14.30;;;21.80;99.90;;;;;;5086172;28;20692;-81
2023/09/17 06:51:23;;;;;;;19.87;13.07;;;21.80;99.90;;;;;;5085962;28;20551;-82
2023/09/17 06:53:48;;;;;;;16.97;12.70;;;21.90;99.90;;;;;;5085912;28;20565;-81
2023/09/17 06:56:15;;;;;;;21.63;14.33;;;22.00;99.90;;;;;;5084453;28;20202;-81
2023/09/17 06:58:42;;;;;;;17.70;13.90;;;22.00;99.90;;;;;;5084549;28;20204;-81
2023/09/17 07:01:09;;;;;;;16.23;12.23;;;22.00;99.90;;;;;;5083966;28;20460;-82
2023/09/17 07:03:34;;;;;;;16.00;12.50;;;22.10;99.90;;;;;;5084631;28;20930;-82
2023/09/17 07:06:00;;;;;;;18.40;13.00;;;22.10;99.90;;;;;;5084081;28;20424;-80
2023/09/17 07:08:26;;;;;;;17.17;12.47;;;22.20;99.90;;;;;;5084311;28;20191;-82
2023/09/17 07:10:52;;;;;;;15.20;12.13;;;22.20;99.90;;;;;;5084116;28;20188;-80
2023/09/17 07:13:17;;;;;;;19.00;12.00;;;22.30;99.90;;;;;;5084518;28;20186;-81
2023/09/17 07:15:47;;;;;;;19.30;13.87;;;22.30;99.90;;;;;;5084225;28;20192;-82
2023/09/17 07:18:13;;;;;;;15.80;12.33;;;22.30;99.90;;;;;;5084224;28;20568;-80
2023/09/17 07:20:39;;;;;;;16.77;13.50;;;22.40;99.90;;;;;;5083442;28;20540;-80
2023/09/17 07:23:05;;;;;;;15.23;11.87;;;22.40;99.90;;;;;;5085585;28;20496;-82
2023/09/17 07:25:34;;;;;;;18.10;14.00;;;22.40;99.90;;;;;;5084166;28;20855;-82
2023/09/17 07:28:05;;;;;;;16.87;12.93;;;22.50;99.90;;;;;;5084404;28;20183;-82
2023/09/17 07:30:34;;;;;;;17.47;12.60;;;22.50;99.90;;;;;;5084754;28;20771;-82
2023/09/17 07:33:04;;;;;;;18.00;12.63;;;22.50;99.90;;;;;;5081499;28;20448;-82
2023/09/17 07:35:33;;;;;;;19.43;14.33;;;22.50;99.90;;;;;;5082530;28;20521;-82
2023/09/17 07:37:59;;;;;;;16.20;12.80;;;22.60;99.90;;;;;;5082147;28;20436;-81
2023/09/17 07:40:25;;;;;;;18.40;13.07;;;22.60;99.90;;;;;;5082306;28;20447;-82
2023/09/17 07:42:51;;;;;;;19.27;13.33;;;22.70;99.90;;;;;;5082350;28;20515;-81
2023/09/17 07:45:17;;;;;;;17.73;12.57;;;22.90;99.90;;;;;;5082589;28;20458;-82
2023/09/17 07:47:43;;;;;;;17.60;13.63;;;22.90;99.90;;;;;;5087112;28;20182;-80
2023/09/17 07:50:09;;;;;;;20.73;13.07;;;22.90;99.90;;;;;;5087562;28;20474;-82
2023/09/17 07:52:35;;;;;;;16.20;12.70;;;23.00;99.90;;;;;;5088271;28;20170;-80
2023/09/17 07:55:01;;;;;;;17.00;12.83;;;23.10;99.90;;;;;;5088650;28;20446;-80
2023/09/17 07:57:27;;;;;;;15.47;12.47;;;23.20;99.90;;;;;;5088058;28;20179;-81
2023/09/17 07:59:53;;;;;;;16.20;10.90;;;23.30;99.90;;;;;;5089000;28;20584;-82
2023/09/17 08:02:19;;;;;;;15.67;12.20;;;23.40;99.90;;;;;;5087838;28;20565;-81
2023/09/17 08:04:44;;;;;;;16.63;12.47;;;23.50;99.90;;;;;;5087799;28;20297;-82
2023/09/17 08:07:11;;;;;;;14.80;11.90;;;23.60;99.90;;;;;;5088632;28;20573;-81
2023/09/17 08:09:38;;;;;;;15.00;11.10;;;23.80;99.90;;;;;;5087799;28;20219;-82
2023/09/17 08:12:05;;;;;;;14.50;11.10;;;23.90;99.90;;;;;;5087357;28;20510;-82
2023/09/17 08:14:33;;;;;;;13.03;10.83;;;24.10;99.90;;;;;;5087518;28;20848;-81
2023/09/17 08:16:58;;;;;;;16.67;11.53;;;24.30;99.90;;;;;;5087310;28;20411;-81
2023/09/17 08:19:24;;;;;;;13.27;11.13;;;24.50;99.90;;;;;;5087249;28;20421;-82
2023/09/17 08:21:50;;;;;;;14.77;12.10;;;24.80;99.90;;;;;;5086541;28;20212;-81
2023/09/17 08:24:17;;;;;;;15.10;10.90;;;25.10;99.90;;;;;;5086846;28;20288;-82
2023/09/17 08:26:43;;;;;;;15.40;11.13;;;25.20;99.90;;;;;;5088704;28;20282;-81
2023/09/17 08:29:09;;;;;;;13.90;10.80;;;25.30;99.90;;;;;;5087024;28;20854;-81
2023/09/17 08:31:35;;;;;;;12.10;10.63;;;25.50;99.90;;;;;;5088485;28;20633;-82
2023/09/17 08:34:03;;;;;;;13.60;10.07;;;25.80;99.90;;;;;;5087319;28;20435;-82
2023/09/17 08:36:29;;;;;;;10.33;8.97;;;26.20;99.90;;;;;;5088361;28;20199;-81
2023/09/17 08:38:55;;;;;;;10.93;9.17;;;26.80;99.90;;;;;;5088346;28;20421;-82
2023/09/17 08:41:24;;;;;;;11.50;10.30;;;27.20;99.90;;;;;;5087191;28;20548;-82
2023/09/17 08:43:53;;;;;;;12.30;9.80;;;27.50;99.90;;;;;;5087201;28;20228;-81
2023/09/17 08:46:21;;;;;;;12.37;9.30;;;27.60;99.90;;;;;;5088333;28;20437;-82
2023/09/17 08:48:47;;;;;;;11.30;10.03;;;27.50;99.90;;;;;;5075988;28;20445;-81
2023/09/17 08:51:15;;;;;;;13.17;10.30;;;27.30;99.90;;;;;;5071970;28;20884;-81
2023/09/17 08:54:05;;;;;;;10.97;9.43;;;27.20;99.90;;;;;;5080061;28;20196;-81
2023/09/17 08:56:33;;;;;;;12.40;10.00;;;27.10;99.90;;;;;;5077907;28;20454;-81
2023/09/17 08:59:03;;;;;;;12.53;10.13;;;27.00;99.90;;;;;;5065433;28;20423;-82
2023/09/17 09:01:31;;;;;;;11.20;10.00;;;26.80;99.90;;;;;;5064032;28;20470;-81
2023/09/17 09:03:57;;;;;;;17.43;10.60;;;26.80;99.90;;;;;;5066067;28;20430;-81
2023/09/17 09:06:27;;;;;;;11.20;9.93;;;26.80;99.90;;;;;;5064110;28;20926;-82
2023/09/17 09:08:54;;;;;;;10.43;8.57;;;26.90;99.90;;;;;;5065291;28;21147;-83
2023/09/17 09:11:21;;;;;;;12.33;10.73;;;27.00;99.90;;;;;;5063616;28;20482;-80
2023/09/17 09:13:48;;;;;;;11.40;10.20;;;27.00;99.90;;;;;;5064328;28;20413;-81
2023/09/17 09:16:15;;;;;;;10.87;9.77;;;27.00;99.90;;;;;;5063049;28;20442;-80
2023/09/17 09:18:40;;;;;;;13.37;10.10;;;27.10;99.90;;;;;;5062838;28;20431;-81
2023/09/17 09:21:08;;;;;;;10.77;9.67;;;27.10;99.90;;;;;;5063830;28;21022;-82
2023/09/17 09:23:35;;;;;;;11.00;8.73;;;27.10;99.90;;;;;;5064457;28;20170;-81
2023/09/17 09:26:01;;;;;;;9.23;7.87;;;27.00;99.90;;;;;;5065722;28;20419;-82
2023/09/17 09:28:31;;;;;;;12.90;10.10;;;26.90;99.90;;;;;;5065180;28;20827;-81
2023/09/17 09:30:57;;;;;;;10.87;9.77;;;26.90;99.90;;;;;;5065700;28;20213;-81
2023/09/17 09:33:23;;;;;;;11.53;10.33;;;26.80;99.90;;;;;;5065499;28;20673;-81
2023/09/17 09:35:49;;;;;;;10.40;9.30;;;26.70;99.90;;;;;;5066480;28;20895;-81
2023/09/17 09:38:15;;;;;;;10.97;9.13;;;26.80;99.90;;;;;;5066913;28;20439;-82
2023/09/17 09:40:43;;;;;;;9.77;8.80;;;26.90;99.90;;;;;;5066242;28;20189;-81
2023/09/17 09:43:31;;;;;;;12.33;9.33;;;26.90;99.90;;;;;;5065394;28;20501;-80
2023/09/17 09:46:04;;;;;;;12.50;11.20;;;27.00;99.90;;;;;;5066748;28;20433;-81
2023/09/17 09:48:40;;;;;;;11.10;9.27;;;27.10;99.90;;;;;;5066712;28;20418;-82
2023/09/17 09:51:06;;;;;;;10.30;9.37;;;27.20;99.90;;;;;;5064887;28;20512;-81
2023/09/17 09:53:32;;;;;;;10.63;9.20;;;27.30;99.90;;;;;;5065348;28;20454;-82
2023/09/17 09:55:58;;;;;;;10.13;8.73;;;27.40;99.90;;;;;;5065193;28;20439;-82
2023/09/17 09:58:25;;;;;;;11.43;9.53;;;27.40;99.90;;;;;;5064929;28;20430;-81
2023/09/17 10:00:51;;;;;;;9.73;8.73;;;27.40;99.90;;;;;;5065114;28;20435;-82
2023/09/17 10:03:20;;;;;;;10.80;8.80;;;27.50;99.90;;;;;;5066281;28;21179;-82
2023/09/17 10:05:46;;;;;;;11.33;9.53;;;27.50;99.90;;;;;;5064926;28;20796;-82
2023/09/17 10:08:17;;;;;;;9.33;8.43;;;27.50;99.90;;;;;;5064788;28;20417;-81
2023/09/17 10:10:42;;;;;;;9.47;8.27;;;27.60;99.90;;;;;;5064329;28;20442;-81
2023/09/17 10:13:10;;;;;;;11.40;9.60;;;27.60;99.90;;;;;;5064710;28;20418;-82
2023/09/17 10:15:37;;;;;;;9.40;8.40;;;27.70;99.90;;;;;;5065007;28;20461;-81
2023/09/17 10:18:12;;;;;;;10.43;8.37;;;27.80;99.90;;;;;;5066543;28;20833;-81
2023/09/17 10:20:39;;;;;;;13.10;11.00;;;27.90;99.90;;;;;;5066005;28;20825;-81
2023/09/17 10:23:06;;;;;;;11.00;9.20;;;27.90;99.90;;;;;;5064627;28;20761;-82
2023/09/17 10:25:33;;;;;;;9.23;8.33;;;27.90;99.90;;;;;;5066303;28;20503;-82
2023/09/17 10:28:01;;;;;;;8.83;7.93;;;27.90;99.90;;;;;;5063851;28;20434;-81
2023/09/17 10:30:28;;;;;;;10.90;8.87;;;27.80;99.90;;;;;;5065947;28;20808;-82
2023/09/17 10:32:55;;;;;;;11.17;9.10;;;27.80;99.90;;;;;;5064358;28;20423;-82
2023/09/17 10:35:21;;;;;;;10.33;8.73;;;27.80;99.90;;;;;;5064641;28;20527;-81
2023/09/17 10:37:48;;;;;;;9.87;8.50;;;27.90;99.90;;;;;;5066186;28;20425;-81
2023/09/17 10:40:15;;;;;;;8.60;7.60;;;27.90;99.90;;;;;;5065881;28;20562;-81
2023/09/17 10:42:41;;;;;;;8.07;7.30;;;28.00;99.90;;;;;;5066111;28;20474;-81
2023/09/17 10:45:08;;;;;;;8.47;7.50;;;28.10;99.90;;;;;;5064351;28;20456;-82
2023/09/17 10:47:36;;;;;;;10.03;9.00;;;28.10;99.90;;;;;;5064292;28;20459;-82
2023/09/17 10:50:03;;;;;;;8.63;7.80;;;28.10;99.90;;;;;;5064286;28;20557;-81
2023/09/17 10:52:30;;;;;;;8.47;7.60;;;28.10;99.90;;;;;;5065939;28;20825;-82
2023/09/17 10:54:56;;;;;;;9.07;8.17;;;28.00;99.90;;;;;;5063855;28;20447;-81
2023/09/17 10:57:30;;;;;;;8.80;7.87;;;28.00;99.90;;;;;;5064717;28;20719;-81
2023/09/17 10:59:58;;;;;;;8.87;8.07;;;28.00;99.90;;;;;;5064305;28;20294;-82
2023/09/17 11:02:27;;;;;;;9.90;8.30;;;28.00;99.90;;;;;;5064389;28;20513;-81
2023/09/17 11:04:53;;;;;;;8.90;7.33;;;28.00;99.90;;;;;;5064260;28;20474;-80
2023/09/17 11:07:20;;;;;;;8.77;7.87;;;27.90;99.90;;;;;;5064609;28;20959;-82
2023/09/17 11:09:46;;;;;;;8.73;7.87;;;27.90;99.90;;;;;;5064368;28;20606;-82
2023/09/17 11:12:12;;;;;;;7.83;6.87;;;27.90;99.90;;;;;;5065489;28;20395;-81
2023/09/17 11:14:38;;;;;;;8.47;7.60;;;27.90;99.90;;;;;;5064382;28;20502;-81
2023/09/17 11:17:07;;;;;;;8.70;7.80;;;27.90;99.90;;;;;;5064017;28;20407;-81
2023/09/17 11:19:33;;;;;;;8.63;7.77;;;27.90;99.90;;;;;;5064374;28;20218;-82
2023/09/17 11:22:04;;;;;;;8.70;7.80;;;27.90;99.90;;;;;;5079577;28;20461;-81
2023/09/17 11:24:32;;;;;;;8.13;7.07;;;27.90;99.90;;;;;;5086893;28;20207;-81
2023/09/17 11:27:01;;;;;;;7.40;6.70;;;27.80;99.90;;;;;;5087971;28;20421;-82
2023/09/17 11:29:56;;;;;;;7.60;6.83;;;27.80;99.90;;;;;;5086871;28;20485;-82
2023/09/17 11:32:23;;;;;;;8.37;7.53;;;27.80;99.90;;;;;;5086835;28;20422;-81
2023/09/17 11:34:49;;;;;;;8.97;7.53;;;27.70;99.90;;;;;;5086360;28;20967;-82
2023/09/17 11:37:16;;;;;;;9.07;8.17;;;27.70;99.90;;;;;;5086676;28;20466;-81
2023/09/17 11:39:50;;;;;;;8.70;6.97;;;27.80;99.90;;;;;;5087803;28;20454;-82
2023/09/17 11:42:16;;;;;;;9.13;8.20;;;27.90;99.90;;;;;;5089276;28;20900;-81
2023/09/17 11:44:44;;;;;;;9.37;8.27;;;27.90;99.90;;;;;;5088674;28;21011;-82
2023/09/17 11:47:12;;;;;;;9.03;8.13;;;28.00;99.90;;;;;;5087604;28;20226;-82
2023/09/17 11:49:39;;;;;;;9.67;8.73;;;28.00;99.90;;;;;;5087577;28;20445;-82
2023/09/17 11:52:10;;;;;;;9.07;8.13;;;28.00;99.90;;;;;;5085914;28;20422;-82
2023/09/17 11:54:40;;;;;;;8.83;7.93;;;28.10;99.90;;;;;;5085990;28;20458;-82
2023/09/17 11:57:07;;;;;;;10.73;8.30;;;28.10;99.90;;;;;;5086067;28;20770;-81
2023/09/17 11:59:42;;;;;;;8.70;7.80;;;28.20;99.90;;;;;;5088294;28;20444;-81
2023/09/17 12:02:08;;;;;;;9.77;8.77;;;28.30;99.90;;;;;;5088950;28;20459;-82
2023/09/17 12:04:35;;;;;;;9.53;8.53;;;28.40;99.90;;;;;;5086096;28;20702;-81
2023/09/17 12:07:07;;;;;;;9.80;8.80;;;28.50;99.90;;;;;;5085985;28;20809;-81
2023/09/17 12:12:07;;;;;;;9.30;8.40;;;28.70;99.90;;;;;;5087355;28;20682;-81
2023/09/17 12:14:34;;;;;;;9.23;8.40;;;28.70;99.90;;;;;;5085679;28;20459;-81
2023/09/17 12:17:03;;;;;;;8.90;8.10;;;28.90;99.90;;;;;;5085717;28;20924;-82
2023/09/17 12:19:29;;;;;;;9.67;8.27;;;28.90;99.90;;;;;;5086592;28;20849;-81
2023/09/17 12:21:58;;;;;;;9.10;7.43;;;28.90;99.90;;;;;;5086454;28;20835;-81
2023/09/17 12:24:44;;;;;;;9.20;8.37;;;28.90;99.90;;;;;;5087039;28;20473;-82
2023/09/17 12:29:58;;;;;;;9.60;8.57;;;29.00;99.90;;;;;;5087218;28;20447;-82
2023/09/17 12:32:29;;;;;;;10.40;9.30;;;29.00;99.90;;;;;;5084585;28;20408;-82
2023/09/17 12:34:57;;;;;;;11.43;9.40;;;29.10;99.90;;;;;;5086047;28;20836;-81
2023/09/17 12:37:23;;;;;;;9.10;8.33;;;29.20;99.90;;;;;;5087792;28;20401;-81